Orbital elements of EUTELSAT HOTBIRD 13C
| Launched | 19 December 2008 |
| Flight ended | – |
| Launch site | Europe's Spaceport, Kourou, French Guiana |
| Owner | European Telecommunications Satellite Organization (EUTELSAT) |
| NORAD ID | 33459 |
| Alternative names |
HOT BIRD 9 |
| Date fetched |
Epoch osculation |
Inc. [°] |
Ecc. | RA asc node [hr] |
Arg Peri. [°] |
Mean anom [°] |
Mean motion [rev/day] |
Abs. mag |
| Date fetched |
Epoch osculation |
Inc. [°] |
Ecc. | RA asc node [hr] |
Arg Peri. [°] |
Mean anom [°] |
Mean motion [rev/day] |
Abs. mag |
| 2026 May 01 17:56 | 2026 May 01 11:24:14 | 2.8318 | 0.00044 | 5.3147 | 324.4700 | 295.9932 | 1.00273 | – |
| 2026 Apr 30 17:56 | 2026 Apr 30 11:26:46 | 2.8295 | 0.00044 | 5.3154 | 322.8759 | 295.9932 | 1.00273 | – |
| 2026 Apr 29 17:57 | 2026 Apr 29 06:21:16 | 2.8265 | 0.00043 | 5.3163 | 325.2330 | 295.9932 | 1.00273 | – |
| 2026 Apr 28 17:56 | 2026 Apr 28 11:31:56 | 2.8246 | 0.00043 | 5.3169 | 324.0218 | 295.9932 | 1.00273 | – |
| 2026 Apr 27 17:58 | 2026 Apr 27 01:18:27 | 2.8210 | 0.00042 | 5.3178 | 321.6560 | 295.9932 | 1.00273 | – |
| 2026 Apr 26 17:58 | 2026 Apr 26 11:36:58 | 2.8196 | 0.00042 | 5.3182 | 320.7890 | 295.9932 | 1.00273 | – |
| 2026 Apr 25 17:58 | 2026 Apr 25 11:39:33 | 2.8169 | 0.00041 | 5.3189 | 319.1254 | 295.9932 | 1.00273 | – |
| 2026 Apr 24 17:59 | 2026 Apr 24 11:42:11 | 2.8142 | 0.00041 | 5.3195 | 317.5408 | 295.9932 | 1.00273 | – |
| 2026 Apr 23 17:57 | 2026 Apr 23 05:28:38 | 2.8107 | 0.00040 | 5.3205 | 315.5938 | 295.9932 | 1.00273 | – |
| 2026 Apr 22 17:57 | 2026 Apr 22 02:35:33 | 2.8075 | 0.00040 | 5.3213 | 314.0371 | 295.9932 | 1.00273 | – |
| 2026 Apr 21 17:57 | 2026 Apr 21 10:07:09 | 2.8055 | 0.00040 | 5.3218 | 313.2163 | 295.9932 | 1.00273 | – |
| 2026 Apr 20 17:57 | 2026 Apr 20 10:09:44 | 2.8026 | 0.00040 | 5.3226 | 312.2577 | 295.9932 | 1.00273 | – |
| 2026 Apr 19 17:58 | 2026 Apr 19 10:24:38 | 2.7997 | 0.00040 | 5.3234 | 311.4059 | 295.9932 | 1.00273 | – |
| 2026 Apr 18 17:56 | 2026 Apr 18 05:06:49 | 2.7962 | 0.00040 | 5.3244 | 310.5060 | 295.9932 | 1.00273 | – |
| 2026 Apr 16 17:57 | 2026 Apr 16 01:58:07 | 2.7901 | 0.00040 | 5.3262 | 308.9356 | 295.9932 | 1.00273 | – |
| 2026 Apr 14 17:57 | 2026 Apr 14 08:19:26 | 2.7854 | 0.00041 | 5.3278 | 313.4037 | 295.9932 | 1.00273 | – |
| 2026 Apr 13 17:57 | 2026 Apr 13 05:41:38 | 2.7825 | 0.00041 | 5.3288 | 312.6490 | 295.9932 | 1.00273 | – |
| 2026 Apr 12 17:57 | 2026 Apr 12 12:12:51 | 2.7806 | 0.00041 | 5.3294 | 312.3502 | 295.9932 | 1.00273 | – |
| 2026 Apr 11 17:57 | 2026 Apr 11 10:32:43 | 2.7779 | 0.00042 | 5.3304 | 311.5199 | 295.9932 | 1.00273 | – |
| 2026 Apr 10 17:58 | 2026 Apr 10 05:27:16 | 2.7750 | 0.00042 | 5.3313 | 310.3875 | 295.9932 | 1.00273 | – |
| 2026 Apr 09 18:01 | 2026 Apr 09 05:29:48 | 2.7725 | 0.00042 | 5.3322 | 309.3889 | 295.9932 | 1.00273 | – |
| 2026 Apr 08 17:57 | 2026 Apr 08 05:32:18 | 2.7701 | 0.00042 | 5.3330 | 308.2418 | 295.9932 | 1.00273 | – |
| 2026 Apr 07 17:57 | 2026 Apr 07 05:34:46 | 2.7678 | 0.00042 | 5.3338 | 306.9024 | 295.9932 | 1.00273 | – |
| 2026 Apr 06 17:57 | 2026 Apr 06 03:54:34 | 2.7652 | 0.00042 | 5.3348 | 305.3067 | 295.9932 | 1.00273 | – |
| 2026 Apr 05 17:56 | 2026 Apr 05 07:02:44 | 2.7632 | 0.00042 | 5.3355 | 303.7248 | 295.9932 | 1.00273 | – |
| 2026 Apr 04 17:57 | 2026 Apr 04 05:42:05 | 2.7607 | 0.00041 | 5.3363 | 302.0183 | 295.9932 | 1.00273 | – |